createdAt,value
2022-09-09T00:01:47.088Z,100050.03
2022-09-09T00:04:22.064Z,100048.28
2022-09-09T00:07:14.786Z,100050.28
2022-09-09T00:09:50.291Z,100043.44
2022-09-09T00:12:38.039Z,100036.38
2022-09-09T00:15:20.487Z,100035.34
2022-09-09T00:17:50.180Z,100035.19
2022-09-09T00:20:34.891Z,100039.59
2022-09-09T00:23:12.127Z,100045.03
2022-09-09T00:25:52.585Z,100046.28
2022-09-09T00:28:25.600Z,100054.31
2022-09-09T00:30:52.494Z,100047.75
2022-09-09T00:33:23.873Z,100045.59
2022-09-09T00:35:58.753Z,100050.13
2022-09-09T00:38:41.651Z,100043.41
2022-09-09T00:41:31.632Z,100053.50
2022-09-09T00:44:36.275Z,100057.03
2022-09-09T00:47:26.283Z,100064.56
2022-09-09T00:50:02.462Z,100056.03
2022-09-09T00:53:08.137Z,100065.03
2022-09-09T00:56:12.507Z,100056.34
2022-09-09T00:58:39.632Z,100052.25
2022-09-09T01:01:14.230Z,100045.94
2022-09-09T01:03:54.367Z,100064.38
2022-09-09T01:06:40.274Z,100061.59
2022-09-09T01:09:33.224Z,100079.09
2022-09-09T01:12:06.131Z,100085.44
2022-09-09T01:14:36.041Z,100078.28
2022-09-09T01:17:13.440Z,100077.81
2022-09-09T01:19:43.482Z,100068.59
2022-09-09T01:22:46.286Z,100064.06
2022-09-09T01:25:19.990Z,100077.66
2022-09-09T01:27:50.907Z,100075.03
2022-09-09T01:30:19.356Z,100083.56
2022-09-09T01:32:50.777Z,100086.81
2022-09-09T01:35:20.215Z,100085.81
2022-09-09T01:37:47.247Z,100080.91
2022-09-09T01:40:14.087Z,100076.25
2022-09-09T01:42:40.842Z,100081.03
2022-09-09T01:45:08.393Z,100073.75
2022-09-09T01:47:36.695Z,100074.84
2022-09-09T01:50:04.108Z,100078.66
2022-09-09T01:52:40.551Z,100080.91
2022-09-09T01:55:08.392Z,100090.03
2022-09-09T01:57:59.187Z,100093.97
2022-09-09T02:00:26.301Z,100103.81
2022-09-09T02:03:06.467Z,100095.50
2022-09-09T02:05:42.728Z,100091.72
2022-09-09T02:08:19.856Z,100086.09
2022-09-09T02:11:07.691Z,100090.47
2022-09-09T02:13:38.763Z,100095.38
2022-09-09T02:16:09.772Z,100092.72
2022-09-09T02:18:42.103Z,100108.88
2022-09-09T02:21:12.724Z,100106.19
2022-09-09T02:23:42.179Z,100108.28
2022-09-09T02:26:11.455Z,100112.91
2022-09-09T02:28:40.317Z,100102.94
2022-09-09T02:31:07.573Z,100098.59
2022-09-09T02:33:48.816Z,100104.75
2022-09-09T02:36:17.278Z,100098.31
2022-09-09T02:38:51.580Z,100104.91
2022-09-09T02:41:23.998Z,100101.81
2022-09-09T02:43:50.929Z,100109.25
2022-09-09T02:46:43.927Z,100111.09
2022-09-09T02:49:19.860Z,100100.03
2022-09-09T02:52:00.258Z,100102.41
2022-09-09T02:54:32.197Z,100093.97
2022-09-09T02:57:11.528Z,100097.34
2022-09-09T02:59:39.940Z,100100.44
2022-09-09T03:02:07.188Z,100104.34
2022-09-09T03:04:34.190Z,100096.94
2022-09-09T03:07:01.170Z,100095.53
2022-09-09T03:09:27.967Z,100104.25
2022-09-09T03:11:56.024Z,100099.72
2022-09-09T03:14:26.239Z,100106.06
2022-09-09T03:16:54.450Z,100111.25
2022-09-09T03:19:22.052Z,100122.75
2022-09-09T03:21:49.244Z,100122.88
2022-09-09T03:24:16.317Z,100119.38
2022-09-09T03:26:45.754Z,100123.19
2022-09-09T03:29:13.719Z,100118.81
2022-09-09T03:31:40.908Z,100123.56
2022-09-09T03:34:08.160Z,100119.78
2022-09-09T03:36:35.601Z,100127.47
2022-09-09T03:39:03.974Z,100127.34
2022-09-09T03:41:31.215Z,100115.16
2022-09-09T03:43:58.142Z,100114.31
2022-09-09T03:46:26.507Z,100120.19
2022-09-09T03:48:54.044Z,100119.19
2022-09-09T03:51:22.663Z,100116.41
2022-09-09T03:53:50.057Z,100112.88
2022-09-09T03:56:17.219Z,100129.66
2022-09-09T03:58:44.767Z,100144.97
2022-09-09T04:01:18.851Z,100133.84
2022-09-09T04:03:46.412Z,100129.22
2022-09-09T04:06:15.565Z,100122.28
2022-09-09T04:08:42.777Z,100128.00
2022-09-09T04:11:10.745Z,100138.78
2022-09-09T04:13:40.811Z,100135.69
2022-09-09T04:16:12.678Z,100126.88
2022-09-09T04:18:40.029Z,100134.56
2022-09-09T04:21:07.997Z,100137.94
2022-09-09T04:23:35.800Z,100139.34
2022-09-09T04:26:04.958Z,100126.78
2022-09-09T04:28:34.938Z,100137.81
2022-09-09T04:31:10.527Z,100128.47
2022-09-09T04:33:40.279Z,100128.19
2022-09-09T04:36:08.179Z,100124.41
2022-09-09T04:38:34.936Z,100128.03
2022-09-09T04:41:03.548Z,100130.28
2022-09-09T04:43:31.793Z,100131.44
2022-09-09T04:46:00.335Z,100130.03
2022-09-09T04:48:28.357Z,100121.50
2022-09-09T04:50:56.755Z,100120.38
2022-09-09T04:53:24.263Z,100113.06
2022-09-09T04:55:51.181Z,100115.88
2022-09-09T04:58:18.232Z,100127.50
2022-09-09T05:00:45.051Z,100120.63
2022-09-09T05:03:13.639Z,100121.91
2022-09-09T05:05:40.498Z,100127.81
2022-09-09T05:08:09.930Z,100128.91
2022-09-09T05:10:39.691Z,100135.63
2022-09-09T05:13:07.636Z,100137.19
2022-09-09T05:15:34.793Z,100130.19
2022-09-09T05:18:02.333Z,100133.53
2022-09-09T05:20:29.427Z,100134.38
2022-09-09T05:22:57.521Z,100130.03
2022-09-09T05:25:27.005Z,100129.91
2022-09-09T05:27:54.832Z,100128.91
2022-09-09T05:30:24.248Z,100144.06
2022-09-09T05:32:51.279Z,100142.25
2022-09-09T05:35:20.079Z,100140.72
2022-09-09T05:37:47.164Z,100140.88
2022-09-09T05:40:14.463Z,100142.66
2022-09-09T05:42:41.844Z,100144.22
2022-09-09T05:45:09.698Z,100143.94
2022-09-09T05:47:38.238Z,100143.66
2022-09-09T05:50:05.536Z,100138.88
2022-09-09T05:52:32.889Z,100143.09
2022-09-09T05:55:00.707Z,100141.66
2022-09-09T05:57:27.627Z,100138.16
2022-09-09T05:59:54.735Z,100130.84
2022-09-09T06:02:21.852Z,100137.31
2022-09-09T06:04:48.732Z,100138.66
2022-09-09T06:07:15.653Z,100146.34
2022-09-09T06:09:42.569Z,100136.63
2022-09-09T06:12:09.955Z,100141.09
2022-09-09T06:14:37.876Z,100141.88
2022-09-09T06:17:05.012Z,100147.78
2022-09-09T06:19:32.019Z,100147.97
2022-09-09T06:21:59.563Z,100139.38
2022-09-09T06:24:26.570Z,100146.34
2022-09-09T06:26:53.347Z,100144.22
2022-09-09T06:29:20.097Z,100147.97
2022-09-09T06:31:47.204Z,100155.19
2022-09-09T06:34:14.218Z,100155.78
2022-09-09T06:36:41.334Z,100152.19
2022-09-09T06:39:14.234Z,100152.03
2022-09-09T06:41:43.526Z,100142.94
2022-09-09T06:44:12.866Z,100141.63
2022-09-09T06:46:40.826Z,100143.75
2022-09-09T06:49:09.349Z,100149.50
2022-09-09T06:51:43.574Z,100150.66
2022-09-09T06:54:11.822Z,100148.44
2022-09-09T06:56:44.000Z,100143.94
2022-09-09T06:59:13.086Z,100147.38
2022-09-09T07:01:42.211Z,100143.63
2022-09-09T07:04:09.968Z,100148.44
2022-09-09T07:06:39.296Z,100154.69
2022-09-09T07:09:09.446Z,100164.09
2022-09-09T07:11:42.687Z,100153.63
2022-09-09T07:14:09.976Z,100160.81
2022-09-09T07:16:38.207Z,100161.91
2022-09-09T07:19:05.609Z,100172.28
2022-09-09T07:21:34.354Z,100163.34
2022-09-09T07:24:01.468Z,100169.25
2022-09-09T07:26:30.957Z,100169.44
2022-09-09T07:28:58.547Z,100168.25
2022-09-09T07:31:33.699Z,100174.03
2022-09-09T07:34:01.938Z,100178.06
2022-09-09T07:36:33.429Z,100182.50
2022-09-09T07:39:12.294Z,100181.41
2022-09-09T07:41:42.097Z,100180.16
2022-09-09T07:44:12.548Z,100177.69
2022-09-09T07:46:40.795Z,100179.78
2022-09-09T07:49:08.556Z,100184.31
2022-09-09T07:51:37.852Z,100176.31
2022-09-09T07:54:08.012Z,100189.63
2022-09-09T07:56:35.276Z,100191.78
2022-09-09T07:59:02.321Z,100193.00
2022-09-09T08:01:33.609Z,100184.84
2022-09-09T08:04:03.290Z,100188.06
2022-09-09T08:06:36.454Z,100180.34
2022-09-09T08:09:04.872Z,100187.16
2022-09-09T08:11:38.573Z,100183.47
2022-09-09T08:14:07.120Z,100178.63
2022-09-09T08:16:37.454Z,100184.47
2022-09-09T08:19:05.096Z,100178.47
2022-09-09T08:21:34.145Z,100176.44
2022-09-09T08:24:02.499Z,100175.88
2022-09-09T08:26:35.716Z,100175.63
2022-09-09T08:29:04.518Z,100177.81
2022-09-09T08:31:43.636Z,100178.88
2022-09-09T08:34:11.577Z,100170.63
2022-09-09T08:36:44.752Z,100165.78
2022-09-09T08:39:14.524Z,100169.63
2022-09-09T08:41:59.395Z,100164.56
2022-09-09T08:44:35.116Z,100164.19
2022-09-09T08:47:13.790Z,100176.53
2022-09-09T08:50:25.584Z,100172.28
2022-09-09T08:53:05.275Z,100180.03
2022-09-09T08:55:50.150Z,100178.97
2022-09-09T08:58:34.101Z,100179.34
2022-09-09T09:01:27.850Z,100176.22
2022-09-09T09:04:14.553Z,100175.31
2022-09-09T09:07:03.584Z,100174.66
2022-09-09T09:09:33.114Z,100170.91
2022-09-09T09:12:03.300Z,100171.44
2022-09-09T09:14:35.161Z,100180.34
2022-09-09T09:17:34.220Z,100166.81
2022-09-09T09:20:01.115Z,100167.00
2022-09-09T09:22:45.471Z,100168.09
2022-09-09T09:25:18.954Z,100169.16
2022-09-09T09:28:07.027Z,100165.47
2022-09-09T09:30:43.622Z,100162.13
2022-09-09T09:33:36.272Z,100161.38
2022-09-09T09:36:04.228Z,100150.78
2022-09-09T09:41:19.382Z,100144.09
2022-09-09T09:43:55.421Z,100143.91
2022-09-09T09:46:25.255Z,100140.47
2022-09-09T09:49:06.683Z,100136.78
2022-09-09T09:51:34.974Z,100149.69
2022-09-09T09:54:29.912Z,100146.94
2022-09-09T09:56:57.220Z,100140.78
2022-09-09T09:59:39.744Z,100145.09
2022-09-09T10:02:28.187Z,100147.16
2022-09-09T10:05:06.608Z,100152.09
2022-09-09T10:07:34.353Z,100145.47
2022-09-09T10:10:04.471Z,100152.50
2022-09-09T10:12:52.138Z,100147.44
2022-09-09T10:15:43.603Z,100144.59
2022-09-09T10:18:28.788Z,100143.25
2022-09-09T10:21:11.118Z,100142.53
2022-09-09T10:23:37.896Z,100138.19
2022-09-09T10:26:38.747Z,100135.63
2022-09-09T10:29:49.786Z,100138.00
2022-09-09T10:32:32.234Z,100129.19
2022-09-09T10:35:08.156Z,100127.53
2022-09-09T10:37:49.581Z,100119.81
2022-09-09T10:40:26.849Z,100127.13
2022-09-09T10:43:02.332Z,100127.75
2022-09-09T10:45:39.848Z,100125.66
2022-09-09T10:48:40.931Z,100135.34
2022-09-09T10:51:19.584Z,100135.94
2022-09-09T10:53:58.185Z,100133.03
2022-09-09T10:56:26.499Z,100133.88
2022-09-09T10:59:08.455Z,100127.47
2022-09-09T11:01:40.653Z,100124.66
2022-09-09T11:04:19.583Z,100128.28
2022-09-09T11:06:53.362Z,100135.47
2022-09-09T11:09:29.715Z,100132.88
2022-09-09T11:11:58.577Z,100135.97
2022-09-09T11:14:40.359Z,100123.38
2022-09-09T11:17:33.429Z,100112.09
2022-09-09T11:20:00.404Z,100120.97
2022-09-09T11:22:41.792Z,100117.16
2022-09-09T11:25:14.927Z,100118.41
2022-09-09T11:28:20.357Z,100118.63
2022-09-09T11:31:23.419Z,100111.66
2022-09-09T11:34:40.113Z,100111.44
2022-09-09T11:37:45.397Z,100114.19
2022-09-09T11:40:24.503Z,100113.94
2022-09-09T11:43:06.969Z,100110.75
2022-09-09T11:45:36.465Z,100106.81
2022-09-09T11:48:04.841Z,100100.91
2022-09-09T11:50:38.826Z,100099.19
2022-09-09T11:53:26.325Z,100097.72
2022-09-09T11:56:04.792Z,100095.78
2022-09-09T11:58:41.641Z,100098.63
2022-09-09T12:01:16.555Z,100103.75
2022-09-09T12:03:52.470Z,100097.69
2022-09-09T12:06:28.712Z,100091.22
2022-09-09T12:09:06.215Z,100084.44
2022-09-09T12:11:32.985Z,100085.53
2022-09-09T12:14:04.200Z,100089.66
2022-09-09T12:16:34.263Z,100091.00
2022-09-09T12:19:05.514Z,100104.25
2022-09-09T12:21:55.195Z,100111.75
2022-09-09T12:24:37.642Z,100106.28
2022-09-09T12:27:20.704Z,100107.44
2022-09-09T12:30:10.545Z,100102.50
2022-09-09T12:32:38.469Z,100092.91
2022-09-09T12:35:14.108Z,100091.88
2022-09-09T12:37:51.118Z,100070.38
2022-09-09T12:40:26.919Z,100073.00
2022-09-09T12:42:54.939Z,100077.25
2022-09-09T12:45:28.072Z,100080.22
2022-09-09T12:47:57.253Z,100080.53
2022-09-09T12:50:27.535Z,100071.44
2022-09-09T12:53:00.626Z,100070.78
2022-09-09T12:55:36.083Z,100060.00
2022-09-09T12:58:07.329Z,100063.38
2022-09-09T13:00:35.856Z,100057.91
2022-09-09T13:03:18.690Z,100057.44
2022-09-09T13:05:47.770Z,100047.25
2022-09-09T13:08:15.649Z,100037.94
2022-09-09T13:10:56.328Z,100042.63
2022-09-09T13:13:28.413Z,100037.50
2022-09-09T13:16:00.125Z,100021.50
2022-09-09T13:18:32.983Z,100018.75
2022-09-09T13:21:00.802Z,100031.50
2022-09-09T13:23:30.639Z,100032.81
2022-09-09T13:26:05.057Z,100022.06
2022-09-09T13:28:33.615Z,100013.41
2022-09-09T13:31:04.293Z,100016.56
2022-09-09T13:33:41.060Z,100020.53
2022-09-09T13:36:10.279Z,100021.88
2022-09-09T13:38:55.863Z,100030.50
2022-09-09T13:41:25.142Z,100028.16
2022-09-09T13:43:53.159Z,100014.47
2022-09-09T13:46:36.779Z,100023.66
2022-09-09T13:49:12.390Z,100030.38
2022-09-09T13:51:40.331Z,100019.66
2022-09-09T13:54:10.972Z,100017.28
2022-09-09T13:56:39.732Z,100018.69
2022-09-09T13:59:10.619Z,100008.72
2022-09-09T14:01:39.993Z,100013.66
2022-09-09T14:04:07.623Z,99997.72
2022-09-09T14:06:39.194Z,99999.53
2022-09-09T14:09:07.824Z,99997.38
2022-09-09T14:11:34.545Z,99987.94
2022-09-09T14:14:01.945Z,99987.34
2022-09-09T14:16:29.143Z,99989.16
2022-09-09T14:19:00.223Z,99983.84
2022-09-09T14:21:28.427Z,99981.47
2022-09-09T14:23:55.888Z,99979.28
2022-09-09T14:26:23.348Z,99981.03
2022-09-09T14:28:55.205Z,99987.50
2022-09-09T14:31:24.564Z,99985.63
2022-09-09T14:33:52.018Z,99992.28
2022-09-09T14:36:19.344Z,99991.28
2022-09-09T14:38:46.553Z,99981.56
2022-09-09T14:41:19.134Z,99983.13
2022-09-09T14:43:46.587Z,99971.25
2022-09-09T14:46:16.261Z,99971.53
2022-09-09T14:48:43.274Z,99972.84
2022-09-09T14:51:13.725Z,99978.13
2022-09-09T14:53:41.558Z,99976.34
2022-09-09T14:56:16.909Z,99979.09
2022-09-09T14:58:44.870Z,99993.94
2022-09-09T15:01:14.856Z,99984.22
2022-09-09T15:03:44.363Z,99979.09
2022-09-09T15:06:15.392Z,99983.91
2022-09-09T15:08:44.160Z,99984.59
2022-09-09T15:11:12.684Z,99983.34
2022-09-09T15:13:41.971Z,99984.41
2022-09-09T15:16:17.836Z,99982.69
2022-09-09T15:18:46.362Z,99987.09
2022-09-09T15:21:15.037Z,99989.19
2022-09-09T15:23:42.415Z,99983.09
2022-09-09T15:26:10.132Z,99988.69
2022-09-09T15:28:39.224Z,99985.31
2022-09-09T15:31:26.743Z,99982.19
2022-09-09T15:34:01.603Z,99976.63
2022-09-09T15:36:31.057Z,99975.66
2022-09-09T15:38:58.564Z,99971.75
2022-09-09T15:41:25.732Z,99976.34
2022-09-09T15:43:55.656Z,99971.28
2022-09-09T15:46:44.509Z,99969.81
2022-09-09T15:49:12.405Z,99970.72
2022-09-09T15:51:45.210Z,99978.38
2022-09-09T15:54:21.853Z,99974.59
2022-09-09T15:56:53.262Z,99980.84
2022-09-09T15:59:20.091Z,99983.28
2022-09-09T16:01:47.008Z,99981.63
2022-09-09T16:04:14.177Z,99976.06
2022-09-09T16:06:41.075Z,99985.59
2022-09-09T16:09:08.614Z,99984.72
2022-09-09T16:11:38.257Z,99981.00
2022-09-09T16:14:06.395Z,99995.19
2022-09-09T16:16:33.985Z,99997.59
2022-09-09T16:19:05.412Z,99998.16
2022-09-09T16:21:36.171Z,100007.78
2022-09-09T16:24:07.788Z,100003.88
2022-09-09T16:26:36.682Z,99995.56
2022-09-09T16:29:04.092Z,100002.13
2022-09-09T16:31:33.260Z,100003.31
2022-09-09T16:34:00.358Z,100005.03
2022-09-09T16:36:31.322Z,100004.00
2022-09-09T16:39:01.018Z,100001.66
2022-09-09T16:41:29.684Z,100003.81
2022-09-09T16:44:03.382Z,99999.78
2022-09-09T16:46:32.738Z,99993.06
2022-09-09T16:49:01.310Z,99998.41
2022-09-09T16:51:30.878Z,99998.84
2022-09-09T16:54:00.437Z,99997.03
2022-09-09T16:56:29.586Z,100003.66
2022-09-09T16:59:02.133Z,100008.31
2022-09-09T17:01:32.652Z,100003.47
2022-09-09T17:04:04.608Z,100006.00
2022-09-09T17:06:35.537Z,100006.25
2022-09-09T17:09:05.553Z,100004.47
2022-09-09T17:11:32.836Z,100004.81
2022-09-09T17:13:59.630Z,100005.94
2022-09-09T17:16:30.923Z,100019.84
2022-09-09T17:18:59.699Z,100018.69
2022-09-09T17:21:28.300Z,100016.75
2022-09-09T17:23:56.095Z,100011.28
2022-09-09T17:26:27.721Z,100015.72
2022-09-09T17:28:59.491Z,100014.75
2022-09-09T17:31:28.587Z,100014.47
2022-09-09T17:33:55.874Z,100019.25
2022-09-09T17:36:24.867Z,100021.16
2022-09-09T17:38:52.911Z,100019.72
2022-09-09T17:41:27.592Z,100014.06
2022-09-09T17:43:55.578Z,100013.38
2022-09-09T17:46:25.942Z,100019.63
2022-09-09T17:48:57.235Z,100025.91
2022-09-09T17:51:28.742Z,100017.88
2022-09-09T17:53:59.357Z,100029.00
2022-09-09T17:56:29.240Z,100033.72
2022-09-09T17:58:55.989Z,100038.78
2022-09-09T18:01:27.973Z,100028.19
2022-09-09T18:03:58.874Z,100034.38
2022-09-09T18:06:28.646Z,100040.31
2022-09-09T18:08:57.676Z,100033.91
2022-09-09T18:11:28.805Z,100022.66
2022-09-09T18:14:00.515Z,100019.97
2022-09-09T18:16:29.943Z,100016.63
2022-09-09T18:19:00.845Z,100025.16
2022-09-09T18:21:29.829Z,100037.81
2022-09-09T18:23:56.771Z,100042.38
2022-09-09T18:26:26.240Z,100045.34
2022-09-09T18:29:01.477Z,100041.50
2022-09-09T18:31:29.713Z,100031.94
2022-09-09T18:34:00.320Z,100032.09
2022-09-09T18:36:34.093Z,100028.72
2022-09-09T18:39:03.568Z,100035.25
2022-09-09T18:41:33.331Z,100035.16
2022-09-09T18:44:03.980Z,100045.09
2022-09-09T18:46:34.821Z,100045.91
2022-09-09T18:49:02.484Z,100049.44
2022-09-09T18:51:30.245Z,100043.22
2022-09-09T18:54:00.628Z,100042.41
2022-09-09T18:56:29.509Z,100036.84
2022-09-09T18:59:01.412Z,100029.44
2022-09-09T19:01:30.361Z,100041.03
2022-09-09T19:03:57.536Z,100043.94
2022-09-09T19:06:27.753Z,100044.59
2022-09-09T19:09:03.305Z,100043.97
2022-09-09T19:11:32.122Z,100039.91
2022-09-09T19:14:01.728Z,100035.88
2022-09-09T19:16:31.120Z,100047.13
2022-09-09T19:19:01.181Z,100047.63
2022-09-09T19:21:30.587Z,100044.47
2022-09-09T19:24:27.986Z,100045.47
2022-09-09T19:26:58.158Z,100044.78
2022-09-09T19:29:26.911Z,100051.50
2022-09-09T19:34:44.645Z,100056.06
2022-09-09T19:37:16.356Z,100056.34
2022-09-09T19:39:46.074Z,100060.88
2022-09-09T19:42:12.913Z,100052.81
2022-09-09T19:44:39.730Z,100056.34
2022-09-09T19:47:07.364Z,100045.28
2022-09-09T19:49:35.250Z,100042.94
2022-09-09T19:52:02.471Z,100045.28
2022-09-09T19:54:29.610Z,100044.13
2022-09-09T19:56:56.672Z,100046.81
2022-09-09T19:59:23.431Z,100045.97
2022-09-09T20:01:51.462Z,100046.63
2022-09-09T20:04:18.724Z,100039.59
2022-09-09T20:06:45.482Z,100034.41
2022-09-09T20:09:15.374Z,100048.81
2022-09-09T20:11:43.567Z,100054.00
2022-09-09T20:14:11.737Z,100056.50
2022-09-09T20:16:39.835Z,100051.66
2022-09-09T20:19:08.258Z,100060.03
2022-09-09T20:21:38.390Z,100059.03
2022-09-09T20:24:08.589Z,100063.72
2022-09-09T20:26:37.588Z,100062.22
2022-09-09T20:29:15.248Z,100064.88
2022-09-09T20:31:43.987Z,100064.88
2022-09-09T20:34:14.073Z,100069.94
2022-09-09T20:36:42.002Z,100070.44
2022-09-09T20:39:12.021Z,100067.09
2022-09-09T20:41:40.339Z,100070.94
2022-09-09T20:44:12.419Z,100062.72
2022-09-09T20:46:43.048Z,100061.53
2022-09-09T20:49:11.399Z,100059.38
2022-09-09T20:51:38.816Z,100057.84
2022-09-09T20:54:14.852Z,100051.47
2022-09-09T20:56:43.233Z,100049.97
2022-09-09T20:59:13.499Z,100051.00
2022-09-09T21:01:40.845Z,100048.44
2022-09-09T21:04:13.845Z,100043.09
2022-09-09T21:06:40.963Z,100046.28
2022-09-09T21:09:07.946Z,100037.56
2022-09-09T21:11:35.145Z,100033.38
2022-09-09T21:14:03.877Z,100038.06
2022-09-09T21:16:31.422Z,100035.38
2022-09-09T21:18:59.344Z,100037.72
2022-09-09T21:21:28.807Z,100040.06
2022-09-09T21:23:58.423Z,100043.91
2022-09-09T21:26:26.086Z,100037.72
2022-09-09T21:28:58.020Z,100034.03
2022-09-09T21:31:27.865Z,100042.44
2022-09-09T21:33:56.792Z,100041.25
2022-09-09T21:36:24.254Z,100049.63
2022-09-09T21:38:51.015Z,100046.78
2022-09-09T21:41:18.169Z,100050.78
2022-09-09T21:43:46.932Z,100044.59
2022-09-09T21:46:16.896Z,100041.41
2022-09-09T21:48:44.515Z,100047.31
2022-09-09T21:51:14.908Z,100035.38
2022-09-09T21:53:42.783Z,100036.53
2022-09-09T21:56:19.028Z,100035.53
2022-09-09T21:58:47.258Z,100033.84
2022-09-09T22:01:18.741Z,100028.84
2022-09-09T22:03:45.740Z,100021.13
2022-09-09T22:06:15.032Z,100028.31
2022-09-09T22:08:43.107Z,100019.41
2022-09-09T22:11:15.799Z,100021.94
2022-09-09T22:13:46.008Z,100023.28
2022-09-09T22:16:15.610Z,100026.03
2022-09-09T22:18:42.905Z,100030.41
2022-09-09T22:21:15.201Z,100031.22
2022-09-09T22:23:42.951Z,100033.41
2022-09-09T22:26:10.183Z,100029.56
2022-09-09T22:28:38.620Z,100037.84
2022-09-09T22:31:06.300Z,100031.59
2022-09-09T22:33:33.274Z,100027.22
2022-09-09T22:36:00.276Z,100027.50
2022-09-09T22:38:27.300Z,100022.50
2022-09-09T22:40:54.685Z,100024.53
2022-09-09T22:43:22.751Z,100024.84
2022-09-09T22:45:51.002Z,100022.63
2022-09-09T22:48:18.279Z,100028.81
2022-09-09T22:50:46.663Z,100026.63
2022-09-09T22:53:16.035Z,100022.78
2022-09-09T22:55:43.712Z,100018.44
2022-09-09T22:58:10.926Z,100015.47
2022-09-09T23:00:40.846Z,100023.16
2022-09-09T23:03:07.921Z,100013.94
2022-09-09T23:05:38.628Z,100001.00
2022-09-09T23:08:05.586Z,100001.00
2022-09-09T23:10:33.451Z,100003.88
2022-09-09T23:13:00.343Z,100003.56
2022-09-09T23:15:28.368Z,100008.19
2022-09-09T23:17:55.783Z,100001.69
2022-09-09T23:20:24.015Z,100005.41
2022-09-09T23:22:50.948Z,100014.88
2022-09-09T23:25:17.794Z,100014.31
2022-09-09T23:27:45.619Z,100018.16
2022-09-09T23:30:13.032Z,100017.66
2022-09-09T23:32:39.749Z,100022.06
2022-09-09T23:35:07.526Z,100023.06
2022-09-09T23:37:34.942Z,100021.81
2022-09-09T23:40:01.983Z,100021.69
2022-09-09T23:42:33.431Z,100022.34
2022-09-09T23:45:00.444Z,100018.88
2022-09-09T23:47:28.301Z,100023.84
2022-09-09T23:49:55.052Z,100025.59
2022-09-09T23:52:24.500Z,100026.25
2022-09-09T23:54:51.438Z,100015.78
2022-09-09T23:57:18.576Z,100016.22
2022-09-09T23:59:45.510Z,100017.41
